Genoa, New York
Current Conditions -  °F | °C
As of 11:56 PM on Wednesday 26 Nov 2014 (Local Time) from KITH Reporting Station
Light Snow Light Snow  
Wind Chill: 18°   Ceiling: 500
Heat Index: 27°   Visibility: 4mi
Dew Point: 25°   Wind: 9mph
Humidity: 92%   Direction: 340°NNW
Pressure: 29.97"   Gusts: NA
Location:  42.67°N, 76.54°W
Report Text: KITH 270456Z AUTO 34008KT 4SM -SN BR BKN005 BKN012 OVC048 M03/M04 A2997 RMK AO2 T10271038 400111027 P0000 SLP163
Loading
Personal Weather Stations






























Interactive Weather Map New forecast layout! Learn more

10-Day Weather Forecast

Advertisements
Track Severe Weather on mobile